sensor_id;sensor_type;location;lat;lon;timestamp;pressure;altitude;pressure_sealevel;temperature;humidity
70434;BME280;57876;47.792;12.960;2023-02-13T00:01:02;98670.44;;;16.38;38.88
70434;BME280;57876;47.792;12.960;2023-02-13T00:03:27;98668.78;;;16.37;38.52
70434;BME280;57876;47.792;12.960;2023-02-13T00:05:51;98658.97;;;16.31;38.86
70434;BME280;57876;47.792;12.960;2023-02-13T00:08:15;98652.41;;;16.27;38.85
70434;BME280;57876;47.792;12.960;2023-02-13T00:10:40;98660.34;;;16.28;38.91
70434;BME280;57876;47.792;12.960;2023-02-13T00:13:04;98658.69;;;16.27;38.61
70434;BME280;57876;47.792;12.960;2023-02-13T00:15:28;98659.78;;;16.32;38.81
70434;BME280;57876;47.792;12.960;2023-02-13T00:17:53;98660.34;;;16.28;38.58
70434;BME280;57876;47.792;12.960;2023-02-13T00:20:17;98645.59;;;16.24;38.54
70434;BME280;57876;47.792;12.960;2023-02-13T00:22:42;98659.53;;;16.28;38.79
70434;BME280;57876;47.792;12.960;2023-02-13T00:25:07;98652.72;;;16.25;38.60
70434;BME280;57876;47.792;12.960;2023-02-13T00:27:32;98662.28;;;16.28;38.61
70434;BME280;57876;47.792;12.960;2023-02-13T00:29:56;98662.28;;;16.28;38.44
70434;BME280;57876;47.792;12.960;2023-02-13T00:32:20;98652.44;;;16.22;38.73
70434;BME280;57876;47.792;12.960;2023-02-13T00:34:45;98657.88;;;16.27;38.48
70434;BME280;57876;47.792;12.960;2023-02-13T00:37:09;98653.53;;;16.26;38.76
70434;BME280;57876;47.792;12.960;2023-02-13T00:39:34;98652.44;;;16.22;38.61
70434;BME280;57876;47.792;12.960;2023-02-13T00:41:58;98652.72;;;16.20;38.87
70434;BME280;57876;47.792;12.960;2023-02-13T00:44:22;98657.88;;;16.22;38.58
70434;BME280;57876;47.792;12.960;2023-02-13T00:46:47;98648.34;;;16.14;39.03
70434;BME280;57876;47.792;12.960;2023-02-13T00:49:11;98660.63;;;16.22;38.45
70434;BME280;57876;47.792;12.960;2023-02-13T00:51:36;98654.66;;;16.15;38.48
70434;BME280;57876;47.792;12.960;2023-02-13T00:54:00;98657.09;;;16.16;38.36
70434;BME280;57876;47.792;12.960;2023-02-13T00:56:24;98659.56;;;16.18;38.49
70434;BME280;57876;47.792;12.960;2023-02-13T00:58:49;98653.81;;;16.14;38.40
70434;BME280;57876;47.792;12.960;2023-02-13T01:01:13;98654.66;;;16.15;38.65
70434;BME280;57876;47.792;12.960;2023-02-13T01:03:38;98649.44;;;16.13;38.64
70434;BME280;57876;47.792;12.960;2023-02-13T01:06:02;98650.00;;;16.10;38.74
70434;BME280;57876;47.792;12.960;2023-02-13T01:08:27;98661.47;;;16.17;38.58
70434;BME280;57876;47.792;12.960;2023-02-13T01:10:51;98654.34;;;16.11;38.68
70434;BME280;57876;47.792;12.960;2023-02-13T01:13:16;98650.81;;;16.11;38.62
70434;BME280;57876;47.792;12.960;2023-02-13T01:15:45;98655.72;;;16.14;38.75
70434;BME280;57876;47.792;12.960;2023-02-13T01:18:12;98642.06;;;16.08;38.79
70434;BME280;57876;47.792;12.960;2023-02-13T01:20:37;98643.44;;;16.11;38.37
70434;BME280;57876;47.792;12.960;2023-02-13T01:23:01;98637.47;;;16.04;38.69
70434;BME280;57876;47.792;12.960;2023-02-13T01:25:26;98636.63;;;16.03;38.99
70434;BME280;57876;47.792;12.960;2023-02-13T01:27:51;98639.91;;;16.05;38.64
70434;BME280;57876;47.792;12.960;2023-02-13T01:30:17;98648.09;;;16.05;38.41
70434;BME280;57876;47.792;12.960;2023-02-13T01:32:43;98646.47;;;16.10;38.53
70434;BME280;57876;47.792;12.960;2023-02-13T01:35:09;98662.84;;;16.10;38.72
70434;BME280;57876;47.792;12.960;2023-02-13T01:37:34;98647.53;;;16.08;38.55
70434;BME280;57876;47.792;12.960;2023-02-13T01:39:58;98649.19;;;16.04;38.75
70434;BME280;57876;47.792;12.960;2023-02-13T01:42:30;98641.25;;;16.03;38.59
70434;BME280;57876;47.792;12.960;2023-02-13T01:44:59;98649.75;;;16.06;38.73
70434;BME280;57876;47.792;12.960;2023-02-13T01:47:46;98644.28;;;16.06;38.22
70434;BME280;57876;47.792;12.960;2023-02-13T01:50:18;98645.09;;;16.02;38.41
70434;BME280;57876;47.792;12.960;2023-02-13T01:52:56;98639.91;;;16.00;38.46
70434;BME280;57876;47.792;12.960;2023-02-13T01:55:24;98638.28;;;15.99;38.45
70434;BME280;57876;47.792;12.960;2023-02-13T01:58:03;98635.56;;;15.99;38.24
70434;BME280;57876;47.792;12.960;2023-02-13T02:00:30;98635.81;;;15.98;38.40
70434;BME280;57876;47.792;12.960;2023-02-13T02:03:00;98633.94;;;15.98;38.50
70434;BME280;57876;47.792;12.960;2023-02-13T02:05:27;98639.38;;;15.98;38.52
70434;BME280;57876;47.792;12.960;2023-02-13T02:07:53;98642.63;;;16.00;38.44
70434;BME280;57876;47.792;12.960;2023-02-13T02:10:19;98644.00;;;15.98;38.70
70434;BME280;57876;47.792;12.960;2023-02-13T02:13:02;98651.91;;;15.99;38.51
70434;BME280;57876;47.792;12.960;2023-02-13T02:15:28;98644.00;;;15.98;38.53
70434;BME280;57876;47.792;12.960;2023-02-13T02:17:53;98650.56;;;15.97;38.12
70434;BME280;57876;47.792;12.960;2023-02-13T02:20:26;98654.09;;;15.97;38.22
70434;BME280;57876;47.792;12.960;2023-02-13T02:37:16;98656.03;;;15.92;38.32
70434;BME280;57876;47.792;12.960;2023-02-13T02:48:29;98666.13;;;15.91;38.19
70434;BME280;57876;47.792;12.960;2023-02-13T02:53:46;98656.81;;;15.87;38.69
70434;BME280;57876;47.792;12.960;2023-02-13T02:56:37;98654.09;;;15.87;38.60
70434;BME280;57876;47.792;12.960;2023-02-13T02:59:06;98655.75;;;15.88;38.37
70434;BME280;57876;47.792;12.960;2023-02-13T03:01:53;98654.38;;;15.85;38.68
70434;BME280;57876;47.792;12.960;2023-02-13T03:04:44;98650.84;;;15.85;38.24
70434;BME280;57876;47.792;12.960;2023-02-13T03:07:28;98651.66;;;15.85;38.53
70434;BME280;57876;47.792;12.960;2023-02-13T03:09:55;98659.56;;;15.87;38.51
70434;BME280;57876;47.792;12.960;2023-02-13T03:13:08;98655.19;;;15.86;38.51
70434;BME280;57876;47.792;12.960;2023-02-13T03:15:45;98656.81;;;15.82;38.27
70434;BME280;57876;47.792;12.960;2023-02-13T03:18:32;98643.19;;;15.77;38.74
70434;BME280;57876;47.792;12.960;2023-02-13T03:24:21;98661.75;;;15.80;38.58
70434;BME280;57876;47.792;12.960;2023-02-13T03:26:59;98660.41;;;15.82;38.22
70434;BME280;57876;47.792;12.960;2023-02-13T03:29:48;98667.47;;;15.83;38.52
70434;BME280;57876;47.792;12.960;2023-02-13T03:32:59;98663.13;;;15.82;38.32
70434;BME280;57876;47.792;12.960;2023-02-13T03:38:27;98662.03;;;15.78;38.41
70434;BME280;57876;47.792;12.960;2023-02-13T03:41:02;98663.38;;;15.81;38.41
70434;BME280;57876;47.792;12.960;2023-02-13T03:44:07;98667.22;;;15.80;38.22
70434;BME280;57876;47.792;12.960;2023-02-13T03:46:36;98660.91;;;15.79;38.04
70434;BME280;57876;47.792;12.960;2023-02-13T03:49:03;98658.75;;;15.76;38.67
70434;BME280;57876;47.792;12.960;2023-02-13T03:51:53;98658.75;;;15.76;38.32
70434;BME280;57876;47.792;12.960;2023-02-13T03:54:32;98657.66;;;15.77;38.59
70434;BME280;57876;47.792;12.960;2023-02-13T03:57:18;98660.09;;;15.79;38.34
70434;BME280;57876;47.792;12.960;2023-02-13T04:00:06;98647.56;;;15.73;38.43
70434;BME280;57876;47.792;12.960;2023-02-13T04:02:37;98653.84;;;15.73;38.27
70434;BME280;57876;47.792;12.960;2023-02-13T04:05:08;98658.47;;;15.78;38.33
70434;BME280;57876;47.792;12.960;2023-02-13T04:07:35;98666.66;;;15.78;38.52
70434;BME280;57876;47.792;12.960;2023-02-13T04:10:08;98654.38;;;15.75;38.49
70434;BME280;57876;47.792;12.960;2023-02-13T04:15:51;98658.75;;;15.76;38.26
70434;BME280;57876;47.792;12.960;2023-02-13T04:18:29;98649.47;;;15.72;38.56
70434;BME280;57876;47.792;12.960;2023-02-13T04:20:55;98651.91;;;15.74;38.46
70434;BME280;57876;47.792;12.960;2023-02-13T04:23:19;98638.81;;;15.71;38.58
70434;BME280;57876;47.792;12.960;2023-02-13T04:25:48;98643.47;;;15.70;38.55
70434;BME280;57876;47.792;12.960;2023-02-13T04:28:13;98642.91;;;15.73;38.33
70434;BME280;57876;47.792;12.960;2023-02-13T04:30:37;98636.91;;;15.71;38.70
70434;BME280;57876;47.792;12.960;2023-02-13T04:33:02;98634.69;;;15.68;38.42
70434;BME280;57876;47.792;12.960;2023-02-13T04:35:27;98638.81;;;15.76;38.59
70434;BME280;57876;47.792;12.960;2023-02-13T04:37:51;98643.19;;;15.77;38.40
70434;BME280;57876;47.792;12.960;2023-02-13T04:40:16;98627.66;;;15.72;38.59
70434;BME280;57876;47.792;12.960;2023-02-13T04:42:40;98628.19;;;15.74;38.68
70434;BME280;57876;47.792;12.960;2023-02-13T04:45:05;98635.56;;;15.74;38.56
70434;BME280;57876;47.792;12.960;2023-02-13T04:47:29;98636.09;;;15.76;38.52
70434;BME280;57876;47.792;12.960;2023-02-13T04:49:54;98626.00;;;15.71;38.78
70434;BME280;57876;47.792;12.960;2023-02-13T04:52:18;98626.28;;;15.75;39.00
70434;BME280;57876;47.792;12.960;2023-02-13T04:54:42;98634.75;;;15.78;38.67
70434;BME280;57876;47.792;12.960;2023-02-13T04:57:07;98617.00;;;15.71;38.57
70434;BME280;57876;47.792;12.960;2023-02-13T04:59:31;98636.66;;;15.78;38.59
70434;BME280;57876;47.792;12.960;2023-02-13T05:01:55;98624.38;;;15.75;38.52
70434;BME280;57876;47.792;12.960;2023-02-13T05:04:22;98620.84;;;15.80;38.52
70434;BME280;57876;47.792;12.960;2023-02-13T05:06:46;98623.81;;;15.78;38.13
70434;BME280;57876;47.792;12.960;2023-02-13T05:09:11;98632.00;;;15.83;38.79
70434;BME280;57876;47.792;12.960;2023-02-13T05:11:35;98633.63;;;15.84;38.73
70434;BME280;57876;47.792;12.960;2023-02-13T05:13:59;98633.38;;;15.86;38.56
70434;BME280;57876;47.792;12.960;2023-02-13T05:16:24;98628.47;;;15.83;38.57
70434;BME280;57876;47.792;12.960;2023-02-13T05:18:48;98633.38;;;15.86;38.63
70434;BME280;57876;47.792;12.960;2023-02-13T05:21:13;98644.00;;;15.88;38.62
70434;BME280;57876;47.792;12.960;2023-02-13T05:23:56;98641.28;;;15.88;38.40
70434;BME280;57876;47.792;12.960;2023-02-13T05:26:20;98647.81;;;15.87;38.34
70434;BME280;57876;47.792;12.960;2023-02-13T05:28:44;98638.28;;;15.84;38.48
70434;BME280;57876;47.792;12.960;2023-02-13T05:31:27;98637.72;;;15.87;38.53
70434;BME280;57876;47.792;12.960;2023-02-13T05:33:52;98635.00;;;15.87;38.60
70434;BME280;57876;47.792;12.960;2023-02-13T05:36:16;98636.66;;;15.88;38.52
70434;BME280;57876;47.792;12.960;2023-02-13T05:38:41;98627.91;;;15.86;38.39
70434;BME280;57876;47.792;12.960;2023-02-13T05:41:05;98630.34;;;15.88;38.64
70434;BME280;57876;47.792;12.960;2023-02-13T05:43:30;98630.66;;;15.86;38.35
70434;BME280;57876;47.792;12.960;2023-02-13T05:46:05;98633.38;;;15.91;38.41
70434;BME280;57876;47.792;12.960;2023-02-13T05:48:30;98627.09;;;15.91;38.34
70434;BME280;57876;47.792;12.960;2023-02-13T05:50:54;98624.09;;;15.92;38.75
70434;BME280;57876;47.792;12.960;2023-02-13T05:53:19;98634.44;;;15.95;38.41
70434;BME280;57876;47.792;12.960;2023-02-13T05:55:43;98631.47;;;15.97;38.42
70434;BME280;57876;47.792;12.960;2023-02-13T05:58:07;98626.81;;;15.97;38.12
70434;BME280;57876;47.792;12.960;2023-02-13T06:00:32;98623.81;;;15.99;38.12
70434;BME280;57876;47.792;12.960;2023-02-13T06:02:56;98632.81;;;16.04;38.75
70434;BME280;57876;47.792;12.960;2023-02-13T06:05:21;98629.28;;;15.99;38.62
70434;BME280;57876;47.792;12.960;2023-02-13T06:07:45;98641.00;;;16.10;38.25
70434;BME280;57876;47.792;12.960;2023-02-13T06:10:10;98637.47;;;16.04;38.69
70434;BME280;57876;47.792;12.960;2023-02-13T06:12:34;98630.63;;;16.06;38.52
70434;BME280;57876;47.792;12.960;2023-02-13T06:14:59;98645.91;;;16.13;38.59
70434;BME280;57876;47.792;12.960;2023-02-13T06:17:23;98645.66;;;16.09;38.56
70434;BME280;57876;47.792;12.960;2023-02-13T06:19:47;98652.72;;;16.15;38.43
70434;BME280;57876;47.792;12.960;2023-02-13T06:22:12;98651.63;;;16.16;38.34
70434;BME280;57876;47.792;12.960;2023-02-13T06:24:36;98654.91;;;16.13;38.36
70434;BME280;57876;47.792;12.960;2023-02-13T06:27:00;98655.72;;;16.14;38.62
70434;BME280;57876;47.792;12.960;2023-02-13T06:29:25;98657.38;;;16.20;38.20
70434;BME280;57876;47.792;12.960;2023-02-13T06:31:49;98663.34;;;16.22;38.40
70434;BME280;57876;47.792;12.960;2023-02-13T06:34:14;98671.53;;;16.22;38.20
70434;BME280;57876;47.792;12.960;2023-02-13T06:36:38;98670.47;;;16.18;38.29
70434;BME280;57876;47.792;12.960;2023-02-13T06:39:04;98681.63;;;16.26;38.67
70434;BME280;57876;47.792;12.960;2023-02-13T06:41:29;98678.66;;;16.23;38.60
70434;BME280;57876;47.792;12.960;2023-02-13T06:43:53;98677.00;;;16.27;38.49
70434;BME280;57876;47.792;12.960;2023-02-13T06:46:18;98680.84;;;16.26;38.55
70434;BME280;57876;47.792;12.960;2023-02-13T06:48:44;98675.94;;;16.23;38.47
70434;BME280;57876;47.792;12.960;2023-02-13T06:51:09;98684.63;;;16.30;38.66
70434;BME280;57876;47.792;12.960;2023-02-13T06:53:33;98691.47;;;16.27;38.28
70434;BME280;57876;47.792;12.960;2023-02-13T06:56:03;98693.38;;;16.27;38.10
70434;BME280;57876;47.792;12.960;2023-02-13T06:58:29;98696.66;;;16.29;38.54
70434;BME280;57876;47.792;12.960;2023-02-13T07:00:53;98706.22;;;16.32;38.52
70434;BME280;57876;47.792;12.960;2023-02-13T07:03:18;98704.28;;;16.32;38.58
70434;BME280;57876;47.792;12.960;2023-02-13T07:05:43;98708.38;;;16.29;38.24
70434;BME280;57876;47.792;12.960;2023-02-13T07:08:09;98705.09;;;16.27;38.42
70434;BME280;57876;47.792;12.960;2023-02-13T07:10:39;98709.75;;;16.32;38.19
70434;BME280;57876;47.792;12.960;2023-02-13T07:13:04;98716.31;;;16.36;38.22
70434;BME280;57876;47.792;12.960;2023-02-13T07:15:33;98716.59;;;16.35;38.10
70434;BME280;57876;47.792;12.960;2023-02-13T07:17:58;98719.31;;;16.35;38.18
70434;BME280;57876;47.792;12.960;2023-02-13T07:20:23;98734.59;;;16.41;38.17
70434;BME280;57876;47.792;12.960;2023-02-13T07:22:47;98724.22;;;16.38;38.24
70434;BME280;57876;47.792;12.960;2023-02-13T07:25:12;98717.13;;;16.37;38.12
70434;BME280;57876;47.792;12.960;2023-02-13T07:27:39;98726.13;;;16.37;37.95
70434;BME280;57876;47.792;12.960;2023-02-13T07:30:04;98721.78;;;16.36;37.95
70434;BME280;57876;47.792;12.960;2023-02-13T07:32:28;98736.25;;;16.42;38.11
70434;BME280;57876;47.792;12.960;2023-02-13T07:34:53;98737.63;;;16.39;38.35
70434;BME280;57876;47.792;12.960;2023-02-13T07:37:17;98735.44;;;16.36;38.10
70434;BME280;57876;47.792;12.960;2023-02-13T07:39:42;98732.72;;;16.36;38.27
70434;BME280;57876;47.792;12.960;2023-02-13T07:42:06;98740.34;;;16.39;38.50
70434;BME280;57876;47.792;12.960;2023-02-13T07:44:31;98758.91;;;16.42;38.00
70434;BME280;57876;47.792;12.960;2023-02-13T07:46:55;98752.06;;;16.45;38.15
70434;BME280;57876;47.792;12.960;2023-02-13T07:49:20;98748.78;;;16.43;38.12
70434;BME280;57876;47.792;12.960;2023-02-13T07:51:44;98756.72;;;16.39;38.40
70434;BME280;57876;47.792;12.960;2023-02-13T07:54:08;98754.25;;;16.38;38.28
70434;BME280;57876;47.792;12.960;2023-02-13T07:56:33;98750.97;;;16.41;38.49
70434;BME280;57876;47.792;12.960;2023-02-13T07:58:57;98758.91;;;16.42;38.00
70434;BME280;57876;47.792;12.960;2023-02-13T08:01:22;98766.84;;;16.44;37.93
70434;BME280;57876;47.792;12.960;2023-02-13T08:03:47;98758.66;;;16.44;38.15
70434;BME280;57876;47.792;12.960;2023-02-13T08:06:13;98765.47;;;16.46;38.16
70434;BME280;57876;47.792;12.960;2023-02-13T08:08:38;98764.09;;;16.44;38.58
70434;BME280;57876;47.792;12.960;2023-02-13T08:11:06;98759.72;;;16.43;38.25
70434;BME280;57876;47.792;12.960;2023-02-13T08:13:49;98760.53;;;16.43;38.06
70434;BME280;57876;47.792;12.960;2023-02-13T08:16:13;98762.19;;;16.44;38.37
70434;BME280;57876;47.792;12.960;2023-02-13T08:18:38;98773.66;;;16.46;38.41
70434;BME280;57876;47.792;12.960;2023-02-13T08:21:02;98776.09;;;16.48;38.08
70434;BME280;57876;47.792;12.960;2023-02-13T08:23:27;98774.19;;;16.48;38.01
70434;BME280;57876;47.792;12.960;2023-02-13T08:25:51;98782.69;;;16.47;37.86
70434;BME280;57876;47.792;12.960;2023-02-13T08:28:16;98771.47;;;16.43;38.15
70434;BME280;57876;47.792;12.960;2023-02-13T08:30:41;98781.31;;;16.49;37.99
70434;BME280;57876;47.792;12.960;2023-02-13T08:33:05;98772.00;;;16.45;38.77
70434;BME280;57876;47.792;12.960;2023-02-13T08:35:29;98783.75;;;16.51;38.14
70434;BME280;57876;47.792;12.960;2023-02-13T08:37:54;98772.56;;;16.47;37.96
70434;BME280;57876;47.792;12.960;2023-02-13T08:40:19;98781.31;;;16.49;38.13
70434;BME280;57876;47.792;12.960;2023-02-13T08:42:43;98783.50;;;16.52;38.34
70434;BME280;57876;47.792;12.960;2023-02-13T08:45:08;98778.84;;;16.48;37.89
70434;BME280;57876;47.792;12.960;2023-02-13T08:47:34;98768.47;;;16.45;38.15
70434;BME280;57876;47.792;12.960;2023-02-13T08:49:59;98772.00;;;16.50;38.16
70434;BME280;57876;47.792;12.960;2023-02-13T08:52:23;98768.19;;;16.51;37.64
70434;BME280;57876;47.792;12.960;2023-02-13T08:54:47;98768.47;;;16.50;37.80
70434;BME280;57876;47.792;12.960;2023-02-13T08:57:12;98767.09;;;16.52;38.32
70434;BME280;57876;47.792;12.960;2023-02-13T08:59:36;98766.53;;;16.50;37.96
70434;BME280;57876;47.792;12.960;2023-02-13T09:02:01;98774.75;;;16.56;37.83
70434;BME280;57876;47.792;12.960;2023-02-13T09:04:25;98763.81;;;16.50;37.97
70434;BME280;57876;47.792;12.960;2023-02-13T09:06:50;98764.09;;;16.49;38.03
70434;BME280;57876;47.792;12.960;2023-02-13T09:09:14;98774.47;;;16.52;38.27
70434;BME280;57876;47.792;12.960;2023-02-13T09:11:39;98766.53;;;16.50;38.21
70434;BME280;57876;47.792;12.960;2023-02-13T09:14:03;98774.75;;;16.56;37.85
70434;BME280;57876;47.792;12.960;2023-02-13T09:16:27;98773.63;;;16.57;37.79
70434;BME280;57876;47.792;12.960;2023-02-13T09:18:52;98773.38;;;16.53;38.25
70434;BME280;57876;47.792;12.960;2023-02-13T09:21:18;98774.75;;;16.56;37.95
70434;BME280;57876;47.792;12.960;2023-02-13T09:23:43;98778.28;;;16.56;37.98
70434;BME280;57876;47.792;12.960;2023-02-13T09:26:10;98780.75;;;16.52;37.94
70434;BME280;57876;47.792;12.960;2023-02-13T09:28:35;98780.19;;;16.56;37.88
70434;BME280;57876;47.792;12.960;2023-02-13T09:31:11;98770.66;;;16.53;37.68
70434;BME280;57876;47.792;12.960;2023-02-13T09:33:36;98776.91;;;16.54;38.04
70434;BME280;57876;47.792;12.960;2023-02-13T09:36:08;98775.28;;;16.52;37.88
70434;BME280;57876;47.792;12.960;2023-02-13T09:38:33;98783.75;;;16.56;38.04
70434;BME280;57876;47.792;12.960;2023-02-13T09:41:04;98781.56;;;16.53;38.17
70434;BME280;57876;47.792;12.960;2023-02-13T09:46:00;98779.66;;;16.48;38.13
70434;BME280;57876;47.792;12.960;2023-02-13T09:48:30;98779.13;;;16.51;38.10
70434;BME280;57876;47.792;12.960;2023-02-13T09:50:57;98784.03;;;16.55;38.19
70434;BME280;57876;47.792;12.960;2023-02-13T09:53:23;98788.94;;;16.52;37.72
70434;BME280;57876;47.792;12.960;2023-02-13T09:55:53;98786.78;;;16.55;37.75
70434;BME280;57876;47.792;12.960;2023-02-13T09:58:38;98792.50;;;16.53;38.17
70434;BME280;57876;47.792;12.960;2023-02-13T10:01:16;98787.84;;;16.54;37.73
70434;BME280;57876;47.792;12.960;2023-02-13T10:03:43;98796.59;;;16.56;37.65
70434;BME280;57876;47.792;12.960;2023-02-13T10:06:29;98794.13;;;16.54;37.75
70434;BME280;57876;47.792;12.960;2023-02-13T10:09:05;98792.50;;;16.53;37.95
70434;BME280;57876;47.792;12.960;2023-02-13T10:17:13;98791.69;;;16.52;37.85
70434;BME280;57876;47.792;12.960;2023-02-13T10:19:44;98794.97;;;16.55;37.56
70434;BME280;57876;47.792;12.960;2023-02-13T10:22:14;98793.31;;;16.54;37.97
70434;BME280;57876;47.792;12.960;2023-02-13T10:24:43;98788.41;;;16.50;37.67
70434;BME280;57876;47.792;12.960;2023-02-13T10:35:19;98785.41;;;16.52;37.71
70434;BME280;57876;47.792;12.960;2023-02-13T10:37:46;98791.94;;;16.56;37.96
70434;BME280;57876;47.792;12.960;2023-02-13T10:40:14;98778.56;;;16.55;37.71
70434;BME280;57876;47.792;12.960;2023-02-13T10:42:43;98778.28;;;16.51;37.88
70434;BME280;57876;47.792;12.960;2023-02-13T10:50:55;98769.28;;;17.51;37.43
70434;BME280;57876;47.792;12.960;2023-02-13T11:06:34;98758.38;;;18.94;36.44
70434;BME280;57876;47.792;12.960;2023-02-13T11:08:59;98762.88;;;19.08;36.40
70434;BME280;57876;47.792;12.960;2023-02-13T11:14:17;98755.50;;;19.28;36.45
70434;BME280;57876;47.792;12.960;2023-02-13T11:16:47;98749.06;;;19.38;36.28
70434;BME280;57876;47.792;12.960;2023-02-13T11:19:18;98746.19;;;19.48;36.20
70434;BME280;57876;47.792;12.960;2023-02-13T11:21:43;98742.56;;;19.52;36.25
70434;BME280;57876;47.792;12.960;2023-02-13T11:24:18;98753.72;;;19.61;36.23
70434;BME280;57876;47.792;12.960;2023-02-13T11:26:44;98741.84;;;19.66;36.13
70434;BME280;57876;47.792;12.960;2023-02-13T11:29:23;98743.44;;;19.72;36.07
70434;BME280;57876;47.792;12.960;2023-02-13T11:32:21;98735.13;;;19.77;36.08
70434;BME280;57876;47.792;12.960;2023-02-13T11:34:45;98736.06;;;19.86;35.84
70434;BME280;57876;47.792;12.960;2023-02-13T11:37:16;98747.22;;;19.95;36.01
70434;BME280;57876;47.792;12.960;2023-02-13T11:39:42;98741.13;;;19.98;35.98
70434;BME280;57876;47.792;12.960;2023-02-13T11:42:14;98751.19;;;20.02;35.89
70434;BME280;57876;47.792;12.960;2023-02-13T11:44:40;98746.75;;;20.07;35.97
70434;BME280;57876;47.792;12.960;2023-02-13T11:47:05;98737.38;;;20.08;35.64
70434;BME280;57876;47.792;12.960;2023-02-13T11:49:34;98733.53;;;20.09;35.96
70434;BME280;57876;47.792;12.960;2023-02-13T11:52:05;98739.25;;;20.12;35.88
70434;BME280;57876;47.792;12.960;2023-02-13T11:54:33;98732.84;;;20.17;35.81
70434;BME280;57876;47.792;12.960;2023-02-13T11:59:40;98741.75;;;20.28;35.93
70434;BME280;57876;47.792;12.960;2023-02-13T12:04:32;98737.19;;;20.37;35.55
70434;BME280;57876;47.792;12.960;2023-02-13T12:07:00;98732.19;;;20.39;35.81
70434;BME280;57876;47.792;12.960;2023-02-13T12:09:26;98739.63;;;20.38;35.74
70434;BME280;57876;47.792;12.960;2023-02-13T12:11:52;98744.16;;;20.48;35.53
70434;BME280;57876;47.792;12.960;2023-02-13T12:14:24;98748.53;;;20.49;35.69
70434;BME280;57876;47.792;12.960;2023-02-13T12:17:07;98739.66;;;20.52;35.74
70434;BME280;57876;47.792;12.960;2023-02-13T12:19:45;98741.56;;;20.57;35.58
70434;BME280;57876;47.792;12.960;2023-02-13T12:22:15;98742.56;;;20.61;35.66
70434;BME280;57876;47.792;12.960;2023-02-13T12:27:54;98736.78;;;20.62;35.64
70434;BME280;57876;47.792;12.960;2023-02-13T12:36:14;98724.34;;;20.65;35.36
70434;BME280;57876;47.792;12.960;2023-02-13T12:47:05;98711.03;;;20.72;35.21
70434;BME280;57876;47.792;12.960;2023-02-13T12:52:19;98704.91;;;20.75;35.42
70434;BME280;57876;47.792;12.960;2023-02-13T13:03:07;98700.22;;;20.89;35.19
70434;BME280;57876;47.792;12.960;2023-02-13T13:05:42;98701.03;;;20.90;35.11
70434;BME280;57876;47.792;12.960;2023-02-13T13:08:30;98700.31;;;20.71;35.21
70434;BME280;57876;47.792;12.960;2023-02-13T13:25:04;98702.66;;;18.98;36.55
70434;BME280;57876;47.792;12.960;2023-02-13T13:27:40;98693.28;;;18.80;36.74
70434;BME280;57876;47.792;12.960;2023-02-13T13:30:25;98706.19;;;18.75;36.76
70434;BME280;57876;47.792;12.960;2023-02-13T13:32:56;98701.91;;;18.63;36.83
70434;BME280;57876;47.792;12.960;2023-02-13T13:35:23;98703.09;;;18.57;37.13
70434;BME280;57876;47.792;12.960;2023-02-13T13:44:47;98700.25;;;18.38;36.98
70434;BME280;57876;47.792;12.960;2023-02-13T13:46:53;98695.91;;;18.32;37.18
70434;BME280;57876;47.792;12.960;2023-02-13T13:51:46;98689.72;;;18.21;36.98
70434;BME280;57876;47.792;12.960;2023-02-13T13:59:24;98696.94;;;18.12;37.23
70434;BME280;57876;47.792;12.960;2023-02-13T14:05:02;98698.34;;;18.04;37.08
70434;BME280;57876;47.792;12.960;2023-02-13T14:07:33;98686.34;;;18.00;37.41
70434;BME280;57876;47.792;12.960;2023-02-13T14:09:58;98679.28;;;17.94;37.27
70434;BME280;57876;47.792;12.960;2023-02-13T14:14:47;98678.22;;;17.90;37.40
70434;BME280;57876;47.792;12.960;2023-02-13T14:17:13;98667.31;;;17.85;37.41
70434;BME280;57876;47.792;12.960;2023-02-13T14:19:39;98678.25;;;17.85;37.19
70434;BME280;57876;47.792;12.960;2023-02-13T14:22:26;98676.91;;;17.82;37.17
70434;BME280;57876;47.792;12.960;2023-02-13T14:24:57;98679.13;;;17.80;37.25
70434;BME280;57876;47.792;12.960;2023-02-13T14:27:33;98674.75;;;17.79;37.19
70434;BME280;57876;47.792;12.960;2023-02-13T14:30:00;98678.00;;;17.76;37.61
70434;BME280;57876;47.792;12.960;2023-02-13T14:32:35;98669.28;;;17.74;37.43
70434;BME280;57876;47.792;12.960;2023-02-13T14:35:05;98673.09;;;17.73;37.31
70434;BME280;57876;47.792;12.960;2023-02-13T14:37:47;98672.03;;;17.74;37.60
70434;BME280;57876;47.792;12.960;2023-02-13T14:42:46;98664.94;;;17.68;37.59
70434;BME280;57876;47.792;12.960;2023-02-13T14:45:18;98658.41;;;17.64;37.99
70434;BME280;57876;47.792;12.960;2023-02-13T14:47:48;98658.69;;;17.63;37.64
70434;BME280;57876;47.792;12.960;2023-02-13T14:50:35;98660.59;;;17.62;37.56
70434;BME280;57876;47.792;12.960;2023-02-13T14:53:08;98662.00;;;17.59;37.26
70434;BME280;57876;47.792;12.960;2023-02-13T14:55:41;98663.91;;;17.59;37.58
70434;BME280;57876;47.792;12.960;2023-02-13T14:58:11;98650.81;;;17.56;37.57
70434;BME280;57876;47.792;12.960;2023-02-13T15:03:30;98656.56;;;17.54;38.08
70434;BME280;57876;47.792;12.960;2023-02-13T15:06:03;98648.38;;;17.49;37.67
70434;BME280;57876;47.792;12.960;2023-02-13T15:08:41;98636.09;;;17.47;37.43
70434;BME280;57876;47.792;12.960;2023-02-13T15:11:06;98641.56;;;17.47;37.80
70434;BME280;57876;47.792;12.960;2023-02-13T15:13:50;98640.78;;;17.41;37.78
70434;BME280;57876;47.792;12.960;2023-02-13T15:16:15;98645.41;;;17.46;37.75
70434;BME280;57876;47.792;12.960;2023-02-13T15:18:41;98640.50;;;17.43;37.55
70434;BME280;57876;47.792;12.960;2023-02-13T15:21:13;98639.13;;;17.45;37.50
70434;BME280;57876;47.792;12.960;2023-02-13T15:23:40;98644.06;;;17.43;37.76